Latest Weather Observations for Noarlunga

IDS60901

Issued at 6:01 pm CDT Tuesday 9 February 2016 (issued every 10 minutes, with the page automatically refreshed every 10 minutes)

About weather observations | Map of Adelaide area stations | Latest observations for Adelaide area | Other Formats
Station Details ID: 023885 Name: NOARLUNGA Lat: -35.16 Lon: 138.51 Height: 55.0 m
Data from the previous 72 hours. | See also: Recent months at Noarlunga
Date/Time
CDT
Tmp

°C
App
Tmp
°C
Dew
Point
°C
Rel
Hum
%
Delta-T

°C
Wind Press
QNH
hPa
Press
MSL
hPa
Rain
since
9 am
mm
Dir
 
Spd
km/h
Gust
km/h
Spd
kts
Gust
kts
09/06:00pm 27.6 23.2 10.3 34 9.7 SE 24 33 13 18 - - 0.0
09/05:30pm 28.8 24.4 10.5 32 10.4 SE 24 32 13 17 - - 0.0
09/05:00pm 30.0 25.9 11.5 32 10.7 SSE 24 32 13 17 - - 0.0
09/04:30pm 31.9 31.0 13.6 32 11.1 SW 11 20 6 11 - - 0.0
09/04:00pm 29.3 27.8 14.3 40 9.1 SW 15 22 8 12 - - 0.0
09/03:30pm 28.9 27.4 15.4 44 8.3 SW 17 24 9 13 - - 0.0
09/03:00pm 28.7 27.2 14.1 40 8.8 WSW 15 20 8 11 - - 0.0
09/02:30pm 28.4 26.8 13.9 41 8.7 SW 15 20 8 11 - - 0.0
09/02:00pm 28.4 27.3 14.3 42 8.5 SW 13 19 7 10 - - 0.0
09/01:30pm 28.1 27.4 14.3 42 8.3 WSW 11 17 6 9 - - 0.0
09/01:00pm 28.2 27.3 13.7 41 8.6 W 11 15 6 8 - - 0.0
09/12:30pm 28.6 28.4 12.9 38 9.3 NW 6 17 3 9 - - 0.0
09/12:00pm 30.0 28.3 8.4 26 11.9 E 7 13 4 7 - - 0.0
09/11:30am 28.4 26.4 10.1 32 10.3 E 11 19 6 10 - - 0.0
09/11:00am 26.9 24.5 11.4 38 8.9 E 15 19 8 10 - - 0.0
09/10:30am 24.7 22.2 12.3 46 7.1 E 17 22 9 12 - - 0.0
09/10:00am 23.0 21.0 12.6 52 6.0 ENE 15 20 8 11 - - 0.0
09/09:30am 21.7 20.3 12.3 55 5.3 E 11 17 6 9 - - 0.0
09/09:00am 20.1 19.0 12.1 60 4.5 ENE 9 17 5 9 - - 0.0
09/08:30am 18.8 16.7 12.3 66 3.6 E 15 24 8 13 - - 0.0
09/08:00am 17.6 17.4 11.9 69 3.1 ENE 4 13 2 7 - - 0.0
09/07:30am 16.6 14.8 12.0 74 2.5 E 13 24 7 13 - - 0.0
09/07:00am 16.0 13.5 12.2 78 2.1 ESE 17 26 9 14 - - 0.0
09/06:30am 16.0 14.2 12.2 78 2.1 E 13 26 7 14 - - 0.0
09/06:00am 16.1 15.4 12.1 77 2.2 ESE 7 19 4 10 - - 0.0
09/05:30am 16.4 15.8 12.4 77 2.2 ENE 7 17 4 9 - - 0.0
09/05:00am 16.6 13.6 12.4 76 2.3 ESE 20 37 11 20 - - 0.0
09/04:52am 16.6 12.0 12.4 76 2.3 ESE 28 48 15 26 - - 0.0
09/04:30am 16.8 11.5 12.5 76 2.4 ESE 32 46 17 25 - - 0.0
09/04:00am 16.7 12.2 12.5 76 2.3 ESE 28 46 15 25 - - 0.0
09/03:30am 16.9 11.6 12.6 76 2.4 ESE 32 44 17 24 - - 0.0
09/03:00am 17.1 12.2 12.6 75 2.5 ESE 30 48 16 26 - - 0.0
09/02:59am 17.1 12.6 12.6 75 2.5 ESE 28 48 15 26 - - 0.0
09/02:30am 17.4 12.6 12.9 75 2.5 ESE 30 41 16 22 - - 0.0
09/02:00am 17.4 12.7 13.1 76 2.4 SE 30 41 16 22 - - 0.0
09/01:30am 17.6 12.9 13.1 75 2.5 SE 30 44 16 24 - - 0.0
09/01:00am 17.7 12.6 13.0 74 2.6 SE 32 44 17 24 - - 0.0
09/12:30am 17.8 13.8 13.1 74 2.6 SE 26 39 14 21 - - 0.0
09/12:00am 17.8 13.5 13.1 74 2.6 ESE 28 43 15 23 - - 0.0
 
Date/Time
CDT
Tmp

°C
App
Tmp
°C
Dew
Point
°C
Rel
Hum
%
Delta-T

°C
Wind Press
QNH
hPa
Press
MSL
hPa
Rain
since
9 am
mm
Dir
 
Spd
km/h
Gust
km/h
Spd
kts
Gust
kts
08/11:30pm 17.9 13.1 13.0 73 2.8 SE 30 46 16 25 - - 0.0
08/11:00pm 17.7 13.3 13.0 74 2.6 SE 28 41 15 22 - - 0.0
08/10:30pm 17.7 13.2 12.6 72 2.8 SE 28 48 15 26 - - 0.0
08/10:22pm 17.8 13.3 12.7 72 2.8 SE 28 48 15 26 - - 0.0
08/10:00pm 17.8 13.3 12.7 72 2.8 SE 28 43 15 23 - - 0.0
08/09:30pm 17.9 14.5 12.6 71 3.0 SE 22 37 12 20 - - 0.0
08/09:00pm 18.1 13.8 12.1 68 3.3 SE 26 43 14 23 - - 0.0
08/08:30pm 18.7 15.1 11.8 64 3.8 SE 22 39 12 21 - - 0.0
08/08:00pm 19.6 15.5 11.6 60 4.4 SE 24 39 13 21 - - 0.0
08/07:30pm 20.6 17.0 11.8 57 4.9 SE 22 35 12 19 - - 0.0
08/07:00pm 21.5 17.5 11.8 54 5.4 SE 24 35 13 19 - - 0.0
08/06:30pm 22.1 17.5 11.2 50 6.1 SE 26 39 14 21 - - 0.0
08/06:00pm 22.2 17.3 11.3 50 6.1 SE 28 41 15 22 - - 0.0
08/05:30pm 22.9 18.3 11.0 47 6.6 SE 26 37 14 20 - - 0.0
08/05:00pm 23.2 18.1 10.6 45 7.0 SE 28 41 15 22 - - 0.0
08/04:30pm 23.4 17.9 10.5 44 7.1 SE 30 39 16 21 - - 0.0
08/04:00pm 24.1 19.0 10.7 43 7.5 SE 28 39 15 21 - - 0.0
08/03:30pm 23.8 18.7 10.5 43 7.4 SE 28 39 15 21 - - 0.0
08/03:00pm 24.0 19.6 10.3 42 7.6 SE 24 32 13 17 - - 0.0
08/02:30pm 23.5 18.6 9.9 42 7.4 SE 26 33 14 18 - - 0.0
08/02:00pm 23.7 19.2 10.0 42 7.5 SE 24 33 13 18 - - 0.0
08/01:30pm 23.4 18.4 10.8 45 7.0 SSE 28 37 15 20 - - 0.0
08/01:00pm 24.2 19.7 11.5 45 7.2 SSE 26 35 14 19 - - 0.0
08/12:30pm 23.6 19.9 11.6 47 6.8 SE 22 32 12 17 - - 0.0
08/12:00pm 22.3 18.4 10.8 48 6.4 SE 22 35 12 19 - - 0.0
08/11:30am 21.5 17.0 11.5 53 5.6 SE 26 33 14 18 - - 0.0
08/11:00am 21.0 16.7 11.9 56 5.1 SE 26 35 14 19 - - 0.0
08/10:30am 20.6 17.1 12.1 58 4.8 SE 22 32 12 17 - - 0.0
08/10:00am 20.1 16.6 12.3 61 4.4 SE 22 32 12 17 - - 0.0
08/09:30am 18.9 15.4 12.2 65 3.7 SE 22 35 12 19 - - 0.0
08/09:00am 19.2 16.4 12.5 65 3.8 SE 19 30 10 16 - - 0.0
08/08:30am 18.4 15.5 12.2 67 3.4 ESE 19 30 10 16 - - 0.0
08/08:00am 17.8 15.7 12.3 70 3.1 SE 15 22 8 12 - - 0.0
08/07:30am 17.0 15.2 12.1 73 2.7 ESE 13 19 7 10 - - 0.0
08/07:00am 16.0 14.9 11.8 76 2.3 ESE 9 15 5 8 - - 0.0
08/06:30am 16.0 14.4 11.6 75 2.4 ESE 11 19 6 10 - - 0.0
08/06:00am 16.0 14.8 11.6 75 2.4 ESE 9 15 5 8 - - 0.0
08/05:30am 16.1 14.1 11.5 74 2.5 ESE 13 19 7 10 - - 0.0
08/05:00am 16.4 13.2 11.3 72 2.8 SE 19 30 10 16 - - 0.0
08/04:30am 16.6 12.5 11.3 71 2.9 SE 24 37 13 20 - - 0.0
08/04:00am 16.6 12.5 11.5 72 2.8 SE 24 32 13 17 - - 0.0
08/03:30am 16.8 13.5 11.7 72 2.8 SE 20 33 11 18 - - 0.0
08/03:00am 17.1 13.1 11.8 71 2.9 SE 24 35 13 19 - - 0.0
08/02:30am 17.0 14.0 11.9 72 2.8 SE 19 30 10 16 - - 0.0
08/02:00am 17.2 12.9 11.9 71 2.9 SE 26 39 14 21 - - 0.0
08/01:30am 17.3 13.9 12.4 73 2.7 SE 22 32 12 17 - - 0.0
08/01:00am 17.6 14.2 12.5 72 2.8 SE 22 30 12 16 - - 0.0
08/12:30am 17.7 14.0 12.6 72 2.8 SE 24 35 13 19 - - 0.0
08/12:00am 17.8 14.1 12.7 72 2.8 SE 24 33 13 18 - - 0.0
 
Date/Time
CDT
Tmp

°C
App
Tmp
°C
Dew
Point
°C
Rel
Hum
%
Delta-T

°C
Wind Press
QNH
hPa
Press
MSL
hPa
Rain
since
9 am
mm
Dir
 
Spd
km/h
Gust
km/h
Spd
kts
Gust
kts
07/11:30pm 17.8 14.8 12.5 71 3.0 SE 20 32 11 17 - - 0.0
07/11:00pm 17.9 15.5 12.6 71 3.0 SE 17 24 9 13 - - 0.0
07/10:30pm 18.2 14.8 12.6 70 3.1 SE 22 33 12 18 - - 0.0
07/10:00pm 18.3 14.7 13.0 71 3.0 SE 24 30 13 16 - - 0.0
07/09:30pm 18.4 14.3 12.8 70 3.1 SE 26 37 14 20 - - 0.0
07/09:00pm 18.6 15.4 13.0 70 3.2 SE 22 33 12 18 - - 0.0
07/08:30pm 19.1 16.3 13.1 68 3.4 SE 20 32 11 17 - - 0.0
07/08:00pm 20.5 17.3 13.0 62 4.3 SE 22 32 12 17 - - 0.0
07/07:30pm 22.3 19.5 13.1 56 5.3 SE 20 28 11 15 - - 0.0
07/07:00pm 23.6 20.8 13.2 52 6.0 SE 20 28 11 15 - - 0.0
07/06:30pm 25.3 22.5 13.2 47 7.1 SSE 20 30 11 16 - - 0.0
07/06:00pm 26.6 24.0 13.7 45 7.6 SSE 20 30 11 16 - - 0.0
07/05:30pm 27.8 25.2 13.3 40 8.6 SSE 19 24 10 13 - - 0.0
07/05:00pm 28.7 26.7 13.8 40 8.9 SSE 17 24 9 13 - - 0.0
07/04:30pm 29.4 28.2 14.0 39 9.3 S 13 22 7 12 - - 0.0
07/04:00pm 29.2 27.3 14.2 40 9.1 SW 17 26 9 14 - - 0.0
07/03:30pm 28.9 27.4 14.3 40 8.8 WSW 15 24 8 13 - - 0.0
07/03:00pm 28.9 27.6 14.7 42 8.6 SW 15 22 8 12 - - 0.0
07/02:30pm 27.8 26.1 14.8 45 7.9 SW 17 24 9 13 - - 0.0
07/02:00pm 27.7 26.2 15.4 47 7.5 SW 17 22 9 12 - - 0.0
07/01:30pm 27.0 25.2 14.4 46 7.6 SW 17 24 9 13 - - 0.0
07/01:00pm 27.1 25.7 14.5 46 7.6 SW 15 20 8 11 - - 0.0
07/12:30pm 27.4 26.7 14.4 45 7.8 SSW 11 22 6 12 - - 0.0
07/12:00pm 27.6 27.3 14.3 44 8.0 SE 9 17 5 9 - - 0.0
07/11:30am 25.9 25.0 13.7 47 7.2 SE 11 17 6 9 - - 0.0
07/11:00am 24.7 23.7 14.5 53 6.1 SE 13 20 7 11 - - 0.0
07/10:30am 23.6 22.2 14.6 57 5.3 SE 15 20 8 11 - - 0.0
07/10:00am 23.2 22.0 15.0 60 4.9 SE 15 20 8 11 - - 0.0
07/09:30am 21.3 19.1 14.5 65 4.0 SE 19 24 10 13 - - 0.0
07/09:00am 20.5 19.1 14.6 69 3.5 SE 15 22 8 12 - - 0.0
07/08:30am 19.2 16.8 14.5 74 2.7 ESE 20 32 11 17 - - 0.0
07/08:00am 18.4 16.8 13.9 75 2.6 E 15 24 8 13 - - 0.0
07/07:30am 17.3 16.3 13.4 78 2.2 SE 11 17 6 9 - - 0.0
07/07:00am 16.9 16.2 13.2 79 2.1 ESE 9 19 5 10 - - 0.0
07/06:30am 16.6 15.5 13.1 80 2.0 ESE 11 13 6 7 - - 0.0
07/06:00am 16.8 16.4 13.1 79 2.1 E 7 11 4 6 - - 0.0
07/05:30am 17.1 16.8 13.2 78 2.2 ESE 7 11 4 6 - - 0.0
07/05:00am 17.2 16.5 13.1 77 2.3 ESE 9 11 5 6 - - 0.0
07/04:30am 17.4 17.6 13.1 76 2.4 ESE 4 7 2 4 - - 0.0
07/04:00am 17.7 17.4 13.2 75 2.5 ESE 7 15 4 8 - - 0.0
07/03:30am 17.6 17.4 13.7 78 2.2 ESE 7 9 4 5 - - 0.0
07/03:00am 17.8 16.9 13.7 77 2.3 ESE 11 19 6 10 - - 0.0
07/02:30am 17.7 17.2 13.8 78 2.2 ESE 9 15 5 8 - - 0.0
07/02:00am 18.0 17.1 13.7 76 2.4 E 11 19 6 10 - - 0.0
07/01:30am 18.2 16.1 13.7 75 2.6 ESE 17 26 9 14 - - 0.0
07/01:00am 18.5 17.2 13.6 73 2.8 SSE 13 20 7 11 - - 0.0
07/12:30am 19.2 18.6 13.4 69 3.3 SE 9 19 5 10 - - 0.0
07/12:00am 19.8 19.4 13.0 65 3.9 ESE 7 17 4 9 - - 0.0
 
Date/Time
CDT
Tmp

°C
App
Tmp
°C
Dew
Point
°C
Rel
Hum
%
Delta-T

°C
Wind Press
QNH
hPa
Press
MSL
hPa
Rain
since
9 am
mm
Dir
 
Spd
km/h
Gust
km/h
Spd
kts
Gust
kts
06/11:30pm 20.0 18.2 13.2 65 3.9 ESE 15 22 8 12 - - 0.0
06/11:00pm 20.3 19.3 13.5 65 3.9 ESE 11 19 6 10 - - 0.0
06/10:30pm 21.0 19.2 13.4 62 4.4 SE 15 22 8 12 - - 0.0
06/10:00pm 21.9 20.2 13.5 59 4.9 ESE 15 22 8 12 - - 0.0
06/09:30pm 22.8 21.6 14.1 58 5.1 ESE 13 19 7 10 - - 0.0
06/09:00pm 23.8 23.3 13.9 54 5.8 SE 9 15 5 8 - - 0.0
06/08:30pm 24.9 24.4 13.8 50 6.5 SSE 9 13 5 7 - - 0.0
06/08:00pm 26.5 24.9 12.9 43 7.9 S 13 19 7 10 - - 0.0
06/07:30pm 28.5 26.8 12.4 37 9.4 SSE 13 15 7 8 - - 0.0
06/07:00pm 28.3 29.8 18.1 54 6.5 W 7 11 4 6 - - 0.0
06/06:30pm 28.7 29.0 14.5 42 8.6 WSW 6 13 3 7 - - 0.0

Latest Capital City Observations: Canberra | Sydney | Melbourne | Brisbane | Adelaide | Perth | Hobart | Darwin

Other Formats:

Comma delimited format used in spreadsheet applications
http://www.bom.gov.au/fwo/IDS60901/IDS60901.94808.axf

JavaScript Object Notation format (JSON) in row-major order
http://www.bom.gov.au/fwo/IDS60901/IDS60901.94808.json